Main page
METAR-TAF:

METAR-TAF

Airports :

Haikou Meilan International Airport

Haikou, China

latitude: 19-56-05N, longitude: 110-27-32E, elevation: 23 m

Current weather observation

The report was made 52 minutes ago, at 20:00 UTC
Wind 2 kt from variable directions
Temperature 21°C
Humidity 94%
Pressure 1016 hPa
Visibility: 6000 m
Broken clouds at a height of 600 ft
Broken clouds at a height of 2000 ft

METAR: ZJHK 262000Z VRB01MPS 6000 BKN006 BKN020 21/20 Q1016 NOSIG

Time: 04:52 (20:52 UTC)

Forecast

The report was made 1 hour and 41 minutes ago, at 19:11 UTC
Forecast valid from 26 at 18 UTC to 27 at 18 UTC
Wind 8 kt from the East/Northeast
Visibility: 5000 m
Scattered clouds at a height of 1500 ft
mist
Temporary
from 26 at 18 UTC to 26 at 24 UTC
Broken clouds at a height of 400 ft
Broken clouds at a height of 2000 ft

TAF: ZJHK 261911Z 2618/2718 06004MPS 5000 BR SCT015 TX28/2706Z TN20/2619Z TEMPO 2618/2624 BKN004 BKN020

Weather observations and forecasts of more than 4000 airports (METAR and TAF reports).

The available stations are represented by yellow and red dots on the map.

Hover mouse over dot to see the name of the station.

Then click to see weather observations and forecasts.

To change the map : click on the green buttons with a black cross to zoom in, on the green button with a dash to zoom out, or on the green arrows for adjacent maps.


METAR-TAF: